Time;durP1;ratioP1;P1;durP2;ratioP2;P2;SDS_P1;SDS_P2;PMS_P1;PMS_P2;Temp;Humidity;BMP_temperature;BMP_pressure;BME280_temperature;BME280_humidity;BME280_pressure;Samples;Min_cycle;Max_cycle;Signal;HPM_P1;HPM_P2
2022/08/18 00:01:39;;;;;;;6.85;4.55;;;;;;;20.43;100.00;98429.59;5020764;28;20100;-66
2022/08/18 00:04:05;;;;;;;8.68;5.13;;;;;;;20.39;100.00;98431.28;5022746;28;20116;-66
2022/08/18 00:06:31;;;;;;;5.35;4.45;;;;;;;20.16;100.00;98417.00;5021356;28;20026;-65
2022/08/18 00:08:58;;;;;;;7.22;4.85;;;;;;;20.08;100.00;98439.50;5027627;28;20076;-66
2022/08/18 00:11:25;;;;;;;6.95;5.13;;;;;;;19.97;100.00;98432.38;5029678;28;20387;-65
2022/08/18 00:13:50;;;;;;;7.65;5.28;;;;;;;19.85;100.00;98427.13;5027597;28;20554;-66
2022/08/18 00:16:15;;;;;;;7.30;5.07;;;;;;;19.73;100.00;98427.41;5021877;28;20155;-66
2022/08/18 00:18:41;;;;;;;7.35;5.22;;;;;;;19.63;100.00;98428.19;5028179;28;20040;-65
2022/08/18 00:21:06;;;;;;;8.63;4.93;;;;;;;19.39;100.00;98425.09;5021172;28;20473;-66
2022/08/18 00:23:32;;;;;;;6.95;4.72;;;;;;;19.22;100.00;98424.50;5026135;28;20029;-66
2022/08/18 00:25:59;;;;;;;8.15;5.07;;;;;;;19.16;100.00;98425.56;5029971;28;20437;-66
2022/08/18 00:28:24;;;;;;;7.90;5.38;;;;;;;19.16;100.00;98420.91;5031106;28;20029;-66
2022/08/18 00:30:49;;;;;;;7.80;5.75;;;;;;;19.09;100.00;98414.84;5026211;28;20021;-66
2022/08/18 00:33:15;;;;;;;10.57;5.60;;;;;;;19.08;100.00;98426.09;5023233;28;20463;-66
2022/08/18 00:35:40;;;;;;;7.15;5.53;;;;;;;18.99;100.00;98423.03;5023066;28;20470;-66
2022/08/18 00:38:07;;;;;;;8.55;6.25;;;;;;;18.86;100.00;98423.50;5029835;28;20068;-66
2022/08/18 00:40:39;;;;;;;8.85;5.47;;;;;;;18.79;100.00;98430.06;5028966;28;20091;-66
2022/08/18 00:43:07;;;;;;;8.00;6.20;;;;;;;18.76;100.00;98424.31;5030696;28;20030;-65
2022/08/18 00:45:36;;;;;;;11.23;6.15;;;;;;;18.69;100.00;98415.47;5020937;28;20470;-68
2022/08/18 00:48:06;;;;;;;8.50;6.35;;;;;;;18.66;100.00;98421.47;5020170;28;20061;-66
2022/08/18 00:50:41;;;;;;;9.48;7.15;;;;;;;18.63;100.00;98414.63;5029849;28;20065;-66
2022/08/18 00:53:38;;;;;;;9.75;6.47;;;;;;;18.53;100.00;98425.50;5027302;28;20040;-66
2022/08/18 00:56:07;;;;;;;9.50;6.85;;;;;;;18.49;100.00;98422.44;5024303;28;20087;-66
2022/08/18 00:58:38;;;;;;;9.82;6.78;;;;;;;18.44;100.00;98416.13;5026689;28;20561;-68
2022/08/18 01:01:05;;;;;;;8.70;7.28;;;;;;;18.37;100.00;98421.84;5024955;28;20032;-66
2022/08/18 01:03:33;;;;;;;9.88;7.05;;;;;;;18.28;100.00;98409.72;5021190;28;20026;-66
2022/08/18 01:06:15;;;;;;;11.23;6.97;;;;;;;18.20;100.00;98394.59;5026172;28;20033;-66
2022/08/18 01:08:41;;;;;;;12.00;7.07;;;;;;;18.23;100.00;98415.16;5028973;28;20168;-66
2022/08/18 01:11:07;;;;;;;8.95;6.63;;;;;;;18.29;100.00;98417.69;5026506;28;20053;-66
2022/08/18 01:13:34;;;;;;;9.70;6.90;;;;;;;18.04;100.00;98371.75;5027206;28;20095;-66
2022/08/18 01:21:49;;;;;;;13.02;6.70;;;;;;;18.33;100.00;98409.75;5025151;28;20049;-68
2022/08/18 01:21:50;;;;;;;10.77;6.95;;;;;;;18.21;100.00;98411.84;5027237;28;20096;-66
2022/08/18 01:24:20;;;;;;;10.40;7.18;;;;;;;18.32;100.00;98402.63;5028455;28;20128;-66
2022/08/18 01:26:49;;;;;;;9.57;6.65;;;;;;;18.26;100.00;98387.25;5027043;28;20187;-66
2022/08/18 01:29:15;;;;;;;;;;;;;;;18.21;100.00;98401.75;5026614;28;20076;-66
2022/08/18 01:31:46;;;;;;;11.45;7.50;;;;;;;18.23;100.00;98385.84;5030557;28;19913;-66
2022/08/18 01:34:11;;;;;;;11.95;8.25;;;;;;;18.22;100.00;98383.41;5026763;28;20032;-65
2022/08/18 01:36:39;;;;;;;10.38;7.70;;;;;;;18.24;100.00;98375.75;5027355;28;20029;-68
2022/08/18 01:39:07;;;;;;;11.07;7.05;;;;;;;18.25;100.00;98375.47;5020289;28;20036;-66
2022/08/18 01:41:32;;;;;;;12.85;8.02;;;;;;;18.23;100.00;98372.16;5022964;28;20044;-66
2022/08/18 01:43:59;;;;;;;11.68;8.50;;;;;;;18.20;100.00;98360.94;5028723;28;20025;-66
2022/08/18 01:46:26;;;;;;;12.20;8.60;;;;;;;18.17;100.00;98357.63;5028390;28;20025;-66
2022/08/18 01:48:52;;;;;;;10.43;8.50;;;;;;;18.12;100.00;98343.88;5028024;28;20017;-66
2022/08/18 01:51:19;;;;;;;10.63;8.23;;;;;;;18.14;100.00;98351.84;5023454;28;20036;-66
2022/08/18 01:53:45;;;;;;;13.05;8.32;;;;;;;18.17;100.00;98345.84;5018566;28;20034;-66
2022/08/18 01:56:13;;;;;;;11.40;9.07;;;;;;;18.15;100.00;98340.63;5025357;28;20018;-66
2022/08/18 01:58:38;;;;;;;11.13;9.13;;;;;;;18.04;100.00;98324.41;5062313;22;20091;-71
2022/08/18 02:01:04;;;;;;;12.73;8.43;;;;;;;18.09;100.00;98324.44;5046760;28;20494;-71
2022/08/18 02:03:35;;;;;;;9.77;7.70;;;;;;;18.18;100.00;98328.31;5040483;28;21843;-71
2022/08/18 02:06:06;;;;;;;11.45;8.38;;;;;;;18.10;100.00;98323.34;5039357;28;20032;-71
2022/08/18 02:08:31;;;;;;;15.32;8.88;;;;;;;18.13;100.00;98318.19;5035717;28;20033;-71
2022/08/18 02:10:57;;;;;;;10.05;8.32;;;;;;;18.13;100.00;98309.13;5043135;28;20024;-71
2022/08/18 02:13:23;;;;;;;14.48;9.20;;;;;;;18.03;100.00;98306.34;5050191;28;20029;-71
2022/08/18 02:15:49;;;;;;;12.27;9.20;;;;;;;18.08;100.00;98315.41;5045386;28;20425;-70
2022/08/18 02:18:17;;;;;;;12.98;8.15;;;;;;;18.01;100.00;98308.53;5046818;28;20082;-71
2022/08/18 02:20:43;;;;;;;14.95;9.20;;;;;;;18.01;100.00;98308.53;5043648;28;20036;-71
2022/08/18 02:23:09;;;;;;;12.80;9.52;;;;;;;17.91;100.00;98290.94;5050120;28;20128;-71
2022/08/18 02:25:35;;;;;;;13.23;8.93;;;;;;;18.04;100.00;98311.53;5047812;28;20033;-71
2022/08/18 02:28:00;;;;;;;13.85;9.80;;;;;;;18.01;100.00;98306.59;5049058;28;20363;-71
2022/08/18 02:30:26;;;;;;;14.43;8.82;;;;;;;18.02;100.00;98310.16;5047953;28;20116;-71
2022/08/18 02:32:51;;;;;;;11.32;9.35;;;;;;;17.96;100.00;98309.31;5043448;28;20386;-71
2022/08/18 02:35:16;;;;;;;11.70;9.02;;;;;;;17.84;100.00;98300.44;5045100;28;20026;-71
2022/08/18 02:37:46;;;;;;;12.85;10.07;;;;;;;17.83;100.00;98301.53;5038592;28;20025;-71
2022/08/18 02:40:13;;;;;;;14.63;9.90;;;;;;;17.79;100.00;98304.00;5050183;28;20049;-71
2022/08/18 02:42:39;;;;;;;12.75;9.90;;;;;;;17.75;100.00;98305.56;5051506;28;20100;-71
2022/08/18 02:45:05;;;;;;;14.40;10.50;;;;;;;17.70;100.00;98309.06;5041345;28;20166;-71
2022/08/18 02:47:30;;;;;;;12.73;9.55;;;;;;;17.70;100.00;98306.34;5045001;28;20025;-71
2022/08/18 02:49:56;;;;;;;15.38;10.23;;;;;;;17.70;100.00;98302.78;5061629;28;21795;-71
2022/08/18 02:52:22;;;;;;;14.50;10.50;;;;;;;17.68;100.00;98305.81;5047582;28;20040;-71
2022/08/18 02:54:47;;;;;;;16.83;10.55;;;;;;;17.71;100.00;98305.28;5051834;28;20029;-71
2022/08/18 02:57:13;;;;;;;15.88;10.65;;;;;;;17.47;100.00;98271.97;5049831;28;20032;-71
2022/08/18 02:59:39;;;;;;;13.93;10.30;;;;;;;17.69;100.00;98310.19;5051290;28;20490;-71
2022/08/18 03:02:06;;;;;;;15.38;10.20;;;;;;;17.64;100.00;98303.84;5043923;28;20029;-71
2022/08/18 03:04:32;;;;;;;14.35;10.50;;;;;;;17.68;100.00;98305.81;5051981;28;20021;-71
2022/08/18 03:07:01;;;;;;;14.55;10.77;;;;;;;17.69;100.00;98307.44;5049449;28;20028;-71
2022/08/18 03:09:28;;;;;;;15.25;10.30;;;;;;;17.81;100.00;98315.47;5042985;28;20107;-71
2022/08/18 03:11:53;;;;;;;16.20;8.68;;;;;;;17.91;100.00;98317.47;5051103;28;20032;-71
2022/08/18 03:14:18;;;;;;;14.43;9.68;;;;;;;17.91;100.00;98315.56;5049750;28;20085;-71
2022/08/18 03:16:46;;;;;;;12.98;9.88;;;;;;;17.83;100.00;98317.97;5041267;28;22592;-71
2022/08/18 03:19:14;;;;;;;12.13;9.63;;;;;;;17.96;100.00;98325.72;5048689;28;20028;-71
2022/08/18 03:21:40;;;;;;;13.57;10.05;;;;;;;17.97;100.00;98330.09;5041665;28;20060;-71
2022/08/18 03:24:06;;;;;;;15.18;10.40;;;;;;;18.08;100.00;98331.84;5033662;28;20525;-71
2022/08/18 03:26:33;;;;;;;13.68;9.70;;;;;;;18.03;100.00;98329.06;5049330;28;20033;-71
2022/08/18 03:28:59;;;;;;;13.27;9.00;;;;;;;18.03;100.00;98328.25;5045165;28;20017;-71
2022/08/18 03:31:27;;;;;;;14.15;10.10;;;;;;;17.90;100.00;98305.72;5043114;28;20482;-70
2022/08/18 03:33:53;;;;;;;14.23;9.90;;;;;;;18.06;100.00;98331.28;5044102;28;20078;-71
2022/08/18 03:36:23;;;;;;;13.52;9.45;;;;;;;17.90;100.00;98313.91;5049078;28;20470;-71
2022/08/18 03:38:50;;;;;;;13.55;9.63;;;;;;;18.01;100.00;98327.69;5045242;28;20036;-71
2022/08/18 03:41:18;;;;;;;12.00;9.32;;;;;;;17.95;100.00;98318.63;5048541;28;20111;-76
2022/08/18 03:43:44;;;;;;;12.63;9.93;;;;;;;17.82;100.00;98306.19;5042351;28;20032;-76
2022/08/18 03:46:13;;;;;;;12.80;9.80;;;;;;;17.77;100.00;98294.38;5042753;28;20029;-76
2022/08/18 03:48:40;;;;;;;15.90;10.18;;;;;;;17.83;100.00;98298.81;5041667;28;20017;-76
2022/08/18 03:51:09;;;;;;;13.73;9.77;;;;;;;17.86;100.00;98307.31;5051213;28;20029;-76
2022/08/18 03:53:36;;;;;;;16.05;9.38;;;;;;;17.86;100.00;98296.38;5050278;28;20033;-76
2022/08/18 03:56:08;;;;;;;15.27;10.15;;;;;;;17.88;100.00;98309.78;5049927;28;20025;-75
2022/08/18 03:58:34;;;;;;;15.30;10.50;;;;;;;17.84;100.00;98308.66;5045056;28;20121;-74
2022/08/18 04:01:01;;;;;;;15.45;10.68;;;;;;;17.81;100.00;98309.19;5048569;28;20021;-76
2022/08/18 04:03:27;;;;;;;15.32;9.88;;;;;;;17.84;100.00;98300.44;5049507;28;20024;-74
2022/08/18 04:05:52;;;;;;;12.80;9.75;;;;;;;17.79;100.00;98281.22;5046447;28;20047;-76
2022/08/18 04:08:17;;;;;;;13.82;10.65;;;;;;;17.76;100.00;98285.31;5047665;28;20539;-76
2022/08/18 04:10:43;;;;;;;12.48;9.73;;;;;;;17.78;100.00;98283.16;5049494;28;20116;-77
2022/08/18 04:13:09;;;;;;;14.57;10.60;;;;;;;17.86;100.00;98293.63;5042841;28;20021;-73
2022/08/18 04:15:36;;;;;;;14.00;10.60;;;;;;;17.75;100.00;98273.53;5047263;28;20027;-73
2022/08/18 04:18:07;;;;;;;15.27;10.18;;;;;;;17.81;100.00;98271.69;5048209;28;20029;-75
2022/08/18 04:20:32;;;;;;;15.00;9.85;;;;;;;17.82;100.00;98272.53;5048088;28;20082;-75
2022/08/18 04:22:58;;;;;;;13.05;10.20;;;;;;;17.84;100.00;98284.03;5044250;28;20037;-74
2022/08/18 04:25:25;;;;;;;16.20;11.63;;;;;;;17.80;100.00;98277.44;5051642;28;20047;-76
2022/08/18 04:27:50;;;;;;;16.05;10.23;;;;;;;17.75;100.00;98259.06;5048499;28;20469;-76
2022/08/18 04:30:16;;;;;;;13.32;10.75;;;;;;;17.66;100.00;98261.47;5039344;28;20032;-74
2022/08/18 04:32:42;;;;;;;15.43;9.77;;;;;;;17.82;100.00;98288.97;5041091;28;20489;-73
2022/08/18 04:35:08;;;;;;;12.10;9.30;;;;;;;17.89;100.00;98290.38;5041723;28;20029;-73
2022/08/18 04:37:36;;;;;;;12.80;9.93;;;;;;;17.81;100.00;98277.16;5036400;28;20060;-72
2022/08/18 04:40:01;;;;;;;13.82;10.13;;;;;;;17.88;100.00;98301.59;5043706;28;20062;-73
2022/08/18 04:42:27;;;;;;;18.17;9.68;;;;;;;17.89;100.00;98309.53;5043617;28;20115;-73
2022/08/18 04:44:52;;;;;;;14.15;9.43;;;;;;;18.03;100.00;98306.34;5048656;28;20021;-72
2022/08/18 04:47:19;;;;;;;12.45;9.10;;;;;;;18.01;100.00;98305.78;5044890;28;20037;-73
2022/08/18 04:49:44;;;;;;;15.98;10.00;;;;;;;18.08;100.00;98320.06;5040538;28;20039;-73
2022/08/18 04:54:54;;;;;;;12.55;9.63;;;;;;;17.96;100.00;98301.09;5042085;28;20458;-73
2022/08/18 04:57:20;;;;;;;16.00;11.07;;;;;;;18.00;100.00;98318.66;5041008;28;20057;-72
2022/08/18 04:59:47;;;;;;;15.00;10.32;;;;;;;18.04;100.00;98318.94;5041366;28;20095;-72
2022/08/18 05:02:14;;;;;;;13.70;10.60;;;;;;;18.10;100.00;98328.81;5048033;28;20124;-72
2022/08/18 05:04:41;;;;;;;12.63;9.43;;;;;;;18.12;100.00;98324.72;5043349;28;20116;-72
2022/08/18 05:07:09;;;;;;;15.93;10.43;;;;;;;18.18;100.00;98331.91;5046130;28;20068;-72
2022/08/18 05:09:36;;;;;;;19.15;9.85;;;;;;;18.23;100.00;98344.78;5042153;28;20044;-72
2022/08/18 05:12:03;;;;;;;12.52;9.68;;;;;;;18.34;100.00;98334.75;5045639;28;20057;-72
2022/08/18 05:14:30;;;;;;;12.60;9.27;;;;;;;18.44;100.00;98342.97;5046475;28;20091;-72
2022/08/18 05:16:59;;;;;;;14.75;9.30;;;;;;;18.54;100.00;98344.97;5047829;28;20251;-73
2022/08/18 05:19:25;;;;;;;;;;;;;;;18.62;100.00;98347.19;5034114;28;20383;-72
2022/08/18 05:21:52;;;;;;;12.23;8.30;;;;;;;18.73;100.00;98342.56;5045749;28;19916;-72
2022/08/18 05:24:18;;;;;;;14.32;10.10;;;;;;;18.75;100.00;98352.22;5047238;28;20079;-72
2022/08/18 05:26:44;;;;;;;13.15;9.82;;;;;;;18.67;100.00;98349.94;5044040;28;20083;-72
2022/08/18 05:29:10;;;;;;;16.00;9.52;;;;;;;18.70;100.00;98343.94;5047861;28;20032;-72
2022/08/18 05:31:35;;;;;;;13.27;9.60;;;;;;;18.77;100.00;98354.69;5047053;28;20478;-73
2022/08/18 05:34:02;;;;;;;13.25;9.93;;;;;;;18.72;100.00;98344.50;5037572;28;20040;-73
2022/08/18 05:36:45;;;;;;;17.83;10.60;;;;;;;18.81;100.00;98336.59;5032648;28;20013;-73
2022/08/18 05:39:16;;;;;;;12.15;9.50;;;;;;;19.10;100.00;98327.91;5034102;28;20078;-74
2022/08/18 05:41:49;;;;;;;14.15;9.57;;;;;;;19.33;100.00;98327.41;5044255;28;20037;-73
2022/08/18 05:44:24;;;;;;;15.30;9.77;;;;;;;19.51;100.00;98320.59;5048106;28;20457;-73
2022/08/18 05:46:53;;;;;;;12.02;8.95;;;;;;;19.85;100.00;98320.88;5042957;28;20033;-74
2022/08/18 05:49:19;;;;;;;15.43;9.35;;;;;;;20.16;100.00;98320.03;5047741;28;20021;-80
2022/08/18 05:51:49;;;;;;;11.95;8.85;;;;;;;20.30;100.00;98305.44;5044513;28;20029;-73
2022/08/18 05:57:10;;;;;;;15.48;9.60;;;;;;;20.90;100.00;98307.44;5049735;28;20666;-71
2022/08/18 05:59:39;;;;;;;11.93;9.05;;;;;;;21.01;100.00;98325.50;5047571;28;20072;-72
2022/08/18 06:02:31;;;;;;;13.15;9.65;;;;;;;21.27;100.00;98325.38;5051290;28;20578;-72
2022/08/18 06:05:10;;;;;;;10.50;8.40;;;;;;;21.79;100.00;98321.16;5047132;28;20037;-71
2022/08/18 06:07:41;;;;;;;11.57;7.75;;;;;;;22.00;100.00;98317.09;5045912;28;20040;-72
2022/08/18 06:10:08;;;;;;;11.02;7.80;;;;;;;21.84;100.00;98321.94;5048295;28;20028;-71
2022/08/18 06:12:35;;;;;;;14.73;8.25;;;;;;;21.72;100.00;98317.91;5050722;28;20078;-73
2022/08/18 06:15:44;;;;;;;12.20;8.20;;;;;;;21.84;100.00;98321.13;5050748;28;20576;-73
2022/08/18 06:18:22;;;;;;;16.60;8.88;;;;;;;21.29;100.00;98332.22;4971760;28;20524;-73
2022/08/18 06:21:00;;;;;;;12.15;8.50;;;;;;;21.51;100.00;98329.09;5040956;28;20024;-72
2022/08/18 06:23:28;;;;;;;15.32;8.38;;;;;;;21.49;100.00;98333.25;5043914;28;20088;-73
2022/08/18 06:26:24;;;;;;;13.90;8.23;;;;;;;21.15;100.00;98334.81;5048161;28;20100;-74
2022/08/18 06:29:07;;;;;;;12.48;8.70;;;;;;;20.95;100.00;98354.97;5036086;28;20039;-74
2022/08/18 06:32:09;;;;;;;11.95;9.10;;;;;;;20.64;100.00;98367.19;5042868;28;20043;-72
2022/08/18 06:35:02;;;;;;;14.07;9.35;;;;;;;20.27;100.00;98373.84;5034928;28;20575;-74
2022/08/18 06:40:36;;;;;;;10.93;8.27;;;;;;;20.22;100.00;98358.19;5048587;28;20505;-73
2022/08/18 06:43:01;;;;;;;11.55;8.48;;;;;;;20.28;100.00;98378.25;5051315;28;20025;-73
2022/08/18 06:45:36;;;;;;;12.80;9.23;;;;;;;20.01;100.00;98354.66;5053772;28;20021;-75
2022/08/18 06:48:16;;;;;;;15.73;8.57;;;;;;;20.81;100.00;98375.13;5046538;28;20039;-73
2022/08/18 06:50:52;;;;;;;10.65;8.10;;;;;;;21.55;100.00;98352.19;5051320;28;20068;-76
2022/08/18 06:53:17;;;;;;;14.35;6.72;;;;;;;22.71;100.00;98369.88;5046000;28;20584;-77
2022/08/18 06:55:46;;;;;;;9.50;6.93;;;;;;;22.74;100.00;98353.56;5049978;28;20040;-73
2022/08/18 06:58:14;;;;;;;12.15;7.22;;;;;;;;;;5049958;28;20107;-73
2022/08/18 07:00:45;;;;;;;12.50;7.40;;;;;;;;;;5053140;28;20025;-71
2022/08/18 07:03:13;;;;;;;12.30;7.63;;;;;;;22.81;100.00;98364.25;5046607;28;20410;-72
2022/08/18 07:06:01;;;;;;;9.43;6.60;;;;;;;23.06;100.00;98356.81;5052262;28;20044;-71
2022/08/18 07:08:29;;;;;;;16.95;6.95;;;;;;;23.25;99.99;98349.34;5057527;28;20024;-71
2022/08/18 07:11:16;;;;;;;9.15;7.00;;;;;;;23.28;100.00;98347.94;5044031;28;20021;-69
2022/08/18 07:13:44;;;;;;;10.10;6.35;;;;;;;23.78;98.21;98348.31;5052407;28;20399;-70
2022/08/18 07:16:28;;;;;;;8.98;5.60;;;;;;;24.36;95.18;98355.31;5048963;28;20025;-80
2022/08/18 07:18:54;;;;;;;8.90;6.35;;;;;;;24.33;90.92;98347.66;5051265;28;20029;-74
2022/08/18 07:21:27;;;;;;;10.70;7.25;;;;;;;24.14;92.53;98350.47;5048699;28;20033;-78
2022/08/18 07:24:04;;;;;;;11.57;6.68;;;;;;;24.12;89.57;98345.25;5049607;28;20048;-74
2022/08/18 07:26:29;;;;;;;11.20;7.03;;;;;;;24.06;89.42;98338.19;5039856;28;20036;-72
2022/08/18 07:29:14;;;;;;;8.65;6.32;;;;;;;24.34;83.54;98349.28;5046045;28;20028;-76
2022/08/18 07:31:49;;;;;;;8.13;6.45;;;;;;;24.31;84.28;98366.47;5042062;28;20029;-71
2022/08/18 07:34:27;;;;;;;9.43;5.80;;;;;;;24.23;79.53;98371.59;5044284;28;20461;-71
2022/08/18 07:37:08;;;;;;;8.35;6.25;;;;;;;24.04;87.65;98373.56;5048575;28;20154;-75
2022/08/18 07:39:44;;;;;;;8.20;7.30;;;;;;;23.72;87.83;98375.19;5044750;28;20124;-74
2022/08/18 07:42:18;;;;;;;10.13;5.90;;;;;;;23.84;87.12;98372.81;5050994;28;20025;-75
2022/08/18 07:44:53;;;;;;;9.95;6.40;;;;;;;23.37;90.83;98371.81;5051471;28;20102;-75
2022/08/18 07:47:25;;;;;;;7.88;5.63;;;;;;;23.30;89.24;98371.38;5040799;28;20052;-74
2022/08/18 07:49:57;;;;;;;8.52;5.70;;;;;;;23.18;93.42;98349.72;5050179;28;20099;-76
2022/08/18 07:52:35;;;;;;;7.75;5.25;;;;;;;23.57;85.28;98364.34;5042218;28;20044;-75
2022/08/18 07:55:06;;;;;;;8.23;5.90;;;;;;;23.68;89.55;98379.63;5046646;28;20036;-76
2022/08/18 07:57:46;;;;;;;8.50;5.55;;;;;;;23.38;86.90;98381.75;5075907;23;20028;-75
2022/08/18 08:00:27;;;;;;;10.77;6.18;;;;;;;22.64;100.00;98378.50;5047611;28;20068;-74
2022/08/18 08:03:11;;;;;;;11.40;6.45;;;;;;;22.79;98.52;98384.94;5050080;28;20083;-74
2022/08/18 08:05:39;;;;;;;6.35;5.57;;;;;;;22.73;100.00;98390.53;5048820;28;20029;-74
2022/08/18 08:08:19;;;;;;;9.27;6.13;;;;;;;21.98;100.00;98384.63;5044239;28;20406;-74
2022/08/18 08:11:10;;;;;;;8.07;6.25;;;;;;;21.74;100.00;98409.31;5023267;28;20038;-72
2022/08/18 08:14:00;;;;;;;8.52;6.10;;;;;;;21.55;100.00;98410.00;5033076;28;20040;-72
2022/08/18 08:16:36;;;;;;;9.00;6.63;;;;;;;21.43;100.00;98406.75;5022644;28;20026;-72
2022/08/18 08:19:12;;;;;;;11.95;6.90;;;;;;;21.11;100.00;98407.97;5026187;28;20037;-73
2022/08/18 08:21:47;;;;;;;10.82;7.18;;;;;;;21.09;100.00;98404.72;5020080;28;20108;-72
2022/08/18 08:24:40;;;;;;;14.10;7.20;;;;;;;20.94;100.00;98396.53;5024965;28;20025;-72
2022/08/18 08:27:16;;;;;;;11.63;7.25;;;;;;;21.03;100.00;98408.56;5031802;28;20060;-74
2022/08/18 08:30:06;;;;;;;8.93;6.93;;;;;;;21.18;100.00;98407.69;5023765;28;20060;-74
2022/08/18 08:32:45;;;;;;;16.35;7.28;;;;;;;21.14;100.00;98407.44;5028137;28;20017;-74
2022/08/18 08:35:15;;;;;;;13.13;6.57;;;;;;;21.15;100.00;98406.31;5031411;28;20029;-71
2022/08/18 08:38:11;;;;;;;11.93;6.53;;;;;;;21.11;100.00;98429.16;5029215;28;20029;-76
2022/08/18 08:40:43;;;;;;;9.88;6.68;;;;;;;20.97;100.00;98412.47;5031381;28;20083;-73
2022/08/18 08:43:17;;;;;;;11.63;6.30;;;;;;;21.02;100.00;98428.94;5031796;28;20430;-72
2022/08/18 08:46:21;;;;;;;7.75;6.38;;;;;;;21.11;100.00;98418.97;5034571;28;20026;-72
2022/08/18 08:49:29;;;;;;;9.07;5.78;;;;;;;21.19;100.00;98410.13;5038351;28;20049;-72
2022/08/18 08:52:15;;;;;;;9.97;6.90;;;;;;;21.26;100.00;98392.53;5043164;28;20036;-71
2022/08/18 08:54:52;;;;;;;9.48;6.10;;;;;;;21.37;100.00;98358.31;5039023;28;20036;-73
2022/08/18 08:57:21;;;;;;;11.95;6.72;;;;;;;21.56;100.00;98353.84;5046552;28;20056;-71
2022/08/18 08:59:49;;;;;;;11.05;6.25;;;;;;;21.84;100.00;98343.16;5046382;28;20036;-70
2022/08/18 09:02:42;;;;;;;9.23;6.75;;;;;;;21.87;100.00;98351.66;5039076;28;20030;-70
2022/08/18 09:05:17;;;;;;;8.98;5.70;;;;;;;22.08;100.00;98355.03;5048898;28;20063;-70
2022/08/18 09:08:09;;;;;;;7.70;6.22;;;;;;;22.33;100.00;98346.88;5048542;28;20037;-70
2022/08/18 09:11:13;;;;;;;8.88;5.43;;;;;;;22.83;100.00;98350.97;5045963;28;20033;-70
2022/08/18 09:13:56;;;;;;;8.30;5.32;;;;;;;23.03;100.00;98391.34;5036133;28;20116;-70
2022/08/18 09:16:28;;;;;;;8.07;5.32;;;;;;;23.21;96.56;98408.19;5031616;28;20028;-70
2022/08/18 09:19:07;;;;;;;7.07;5.28;;;;;;;23.37;95.50;98395.81;5028480;28;20033;-70
2022/08/18 09:21:49;;;;;;;8.45;5.75;;;;;;;23.70;90.77;98376.59;5023452;28;20037;-69
2022/08/18 09:24:37;;;;;;;6.78;5.22;;;;;;;24.84;81.65;98344.75;5025973;28;20021;-72
2022/08/18 09:27:27;;;;;;;5.85;4.90;;;;;;;26.16;69.63;98323.41;5022910;28;20043;-72
2022/08/18 09:29:54;;;;;;;;;;;;;;;26.49;67.46;98314.78;5029650;28;20502;-70
2022/08/18 09:32:19;;;;;;;5.70;4.45;;;;;;;27.68;63.24;98310.94;5024232;28;19936;-70
2022/08/18 09:35:26;;;;;;;7.15;4.85;;;;;;;28.53;57.44;98301.13;5026097;28;20707;-70
2022/08/18 09:43:38;;;;;;;6.70;4.53;;;;;;;31.55;49.67;98339.53;5039933;28;20410;-72
2022/08/18 09:46:06;;;;;;;7.75;4.82;;;;;;;30.50;48.84;98339.31;5025706;28;20033;-72
2022/08/18 09:48:40;;;;;;;7.43;4.60;;;;;;;29.60;51.72;98349.16;5023429;28;20048;-69
2022/08/18 09:51:14;;;;;;;6.40;4.60;;;;;;;29.44;51.77;98344.19;5025807;28;20021;-69
2022/08/18 09:53:45;;;;;;;5.88;4.22;;;;;;;29.69;52.43;98347.16;5029204;28;20447;-69
2022/08/18 09:56:13;;;;;;;5.50;4.50;;;;;;;29.86;51.79;98346.97;5028398;28;20378;-69
2022/08/18 09:58:54;;;;;;;6.20;4.43;;;;;;;30.36;51.03;98359.16;5024474;28;20439;-69
2022/08/18 10:01:29;;;;;;;5.57;4.50;;;;;;;31.17;47.79;98363.06;5019159;28;20314;-68
2022/08/18 10:04:12;;;;;;;7.18;4.63;;;;;;;32.05;44.79;98363.38;5021932;28;20112;-68
2022/08/18 10:06:38;;;;;;;6.38;5.45;;;;;;;32.21;44.66;98354.22;5019983;28;20130;-68
2022/08/18 10:09:19;;;;;;;4.97;4.07;;;;;;;32.36;44.94;98356.22;5011719;28;20530;-69
2022/08/18 10:11:57;;;;;;;5.10;4.60;;;;;;;31.93;45.82;98352.22;5024579;28;20071;-69
2022/08/18 10:14:44;;;;;;;6.70;4.63;;;;;;;29.42;49.80;98374.38;5016639;28;20047;-68
2022/08/18 10:17:48;;;;;;;8.05;5.45;;;;;;;29.24;50.91;98364.50;5020213;28;20538;-69
2022/08/18 10:20:59;;;;;;;5.30;4.45;;;;;;;29.98;51.11;98348.19;5015108;28;20032;-69
2022/08/18 10:23:46;;;;;;;6.50;4.40;;;;;;;33.39;43.83;98326.34;5011929;28;20041;-69
2022/08/18 10:26:29;;;;;;;5.40;4.40;;;;;;;35.42;39.45;98314.44;5018399;28;20034;-69
2022/08/18 10:29:02;;;;;;;5.93;4.10;;;;;;;35.97;38.04;98295.06;5020197;28;20030;-69
2022/08/18 10:31:30;;;;;;;5.68;4.72;;;;;;;35.67;37.96;98302.75;5020496;28;20029;-69
2022/08/18 10:34:09;;;;;;;6.13;5.00;;;;;;;34.64;38.71;98302.81;5020264;28;20474;-69
2022/08/18 10:36:49;;;;;;;7.22;4.40;;;;;;;34.55;39.63;98305.81;5017512;28;20036;-69
2022/08/18 10:39:18;;;;;;;5.95;4.88;;;;;;;34.07;39.50;98288.53;5015703;28;20067;-69
2022/08/18 10:41:56;;;;;;;10.50;4.72;;;;;;;34.84;38.91;98292.25;5021719;28;20037;-69
2022/08/18 10:44:22;;;;;;;5.00;4.00;;;;;;;35.58;38.14;98279.69;5024298;28;20192;-69
2022/08/18 10:46:49;;;;;;;5.65;4.38;;;;;;;36.04;37.57;98263.34;5023120;28;20041;-69
2022/08/18 10:49:24;;;;;;;10.77;6.00;;;;;;;35.80;36.59;98233.72;5022652;28;20037;-69
2022/08/18 10:52:07;;;;;;;7.03;5.18;;;;;;;35.34;38.08;98240.41;5020147;28;20033;-69
2022/08/18 10:54:56;;;;;;;7.18;4.85;;;;;;;36.24;36.71;98233.00;5008647;28;20109;-69
2022/08/18 10:57:28;;;;;;;;;;;;;;;36.01;36.17;98235.97;5023777;28;20058;-69
2022/08/18 11:00:01;;;;;;;5.32;4.80;;;;;;;37.18;35.03;98257.88;5016837;28;19916;-69
2022/08/18 11:02:55;;;;;;;8.30;4.88;;;;;;;37.11;33.74;98259.84;5023656;28;20352;-69
2022/08/18 11:05:24;;;;;;;5.78;4.60;;;;;;;37.84;34.25;98265.44;5016690;28;20064;-69
2022/08/18 11:07:57;;;;;;;4.60;3.92;;;;;;;37.60;33.90;98264.13;5020201;28;20029;-69
2022/08/18 11:10:47;;;;;;;6.00;4.72;;;;;;;36.15;35.32;98247.38;5018874;28;20034;-69
2022/08/18 11:13:15;;;;;;;5.80;4.60;;;;;;;35.24;36.97;98245.88;5026006;28;20068;-69
2022/08/18 11:15:54;;;;;;;;;;;;;;;35.51;36.95;98239.00;5025092;28;20219;-70
2022/08/18 11:18:34;;;;;;;6.63;5.43;;;;;;;35.22;37.05;98231.41;5021945;28;19913;-69
2022/08/18 11:21:21;;;;;;;7.28;4.57;;;;;;;34.12;38.70;98253.72;5025204;28;20500;-68
2022/08/18 11:24:03;;;;;;;10.27;5.43;;;;;;;34.24;38.26;98248.75;5021624;28;20443;-69
2022/08/18 11:26:30;;;;;;;5.90;5.25;;;;;;;34.07;39.18;98254.84;5019385;28;20037;-69
2022/08/18 11:28:55;;;;;;;10.20;6.00;;;;;;;33.46;39.85;98258.38;5024031;28;20049;-69
2022/08/18 11:31:21;;;;;;;7.15;4.90;;;;;;;32.86;41.06;98253.88;5014455;28;20480;-70
2022/08/18 11:33:47;;;;;;;8.43;5.63;;;;;;;32.65;41.44;98247.75;5025548;28;20099;-69
2022/08/18 11:36:15;;;;;;;10.30;5.75;;;;;;;32.04;42.08;98251.78;5024789;28;20025;-69
2022/08/18 11:38:53;;;;;;;12.05;5.95;;;;;;;31.85;42.57;98258.03;5025241;28;20068;-69
2022/08/18 11:41:24;;;;;;;;;;;;;;;31.71;43.26;98241.69;5027195;28;20506;-69
2022/08/18 11:44:03;;;;;;;7.38;4.80;;;;;;;32.04;42.19;98246.19;5026781;28;19967;-70
2022/08/18 12:13:10;;;;;;;7.43;3.90;;;;;;;35.48;35.30;98208.81;5157691;27;20827;-66
2022/08/18 12:15:35;;;;;;;4.20;3.80;;;;;;;35.77;35.12;98209.19;5124421;27;20038;-65
2022/08/18 12:18:02;;;;;;;7.40;4.35;;;;;;;35.90;34.71;98199.25;5133083;27;20027;-66
2022/08/18 12:20:27;;;;;;;6.85;4.35;;;;;;;36.22;34.71;98197.97;5132636;27;20031;-66
2022/08/18 12:22:55;;;;;;;8.88;4.03;;;;;;;35.76;34.68;98180.22;5127847;27;20023;-65
2022/08/18 12:25:21;;;;;;;6.25;3.72;;;;;;;36.46;34.07;98188.09;5120375;27;20031;-66
2022/08/18 12:27:47;;;;;;;4.93;3.53;;;;;;;36.77;33.13;98176.25;5128372;27;22089;-66
2022/08/18 12:30:13;;;;;;;3.92;3.53;;;;;;;35.90;34.11;98179.53;5130072;27;20023;-66
2022/08/18 12:32:39;;;;;;;3.70;3.40;;;;;;;35.26;35.23;98178.81;5128227;27;20027;-67